sensor_id;sensor_type;location;lat;lon;timestamp;temperature;humidity
15328;DHT22;7764;51.430;6.840;2023-06-22T00:02:16;23.00;99.90
15328;DHT22;7764;51.430;6.840;2023-06-22T00:04:43;23.00;99.90
15328;DHT22;7764;51.430;6.840;2023-06-22T00:07:10;23.00;99.90
15328;DHT22;7764;51.430;6.840;2023-06-22T00:09:37;22.90;99.90
15328;DHT22;7764;51.430;6.840;2023-06-22T00:12:04;22.90;99.90
15328;DHT22;7764;51.430;6.840;2023-06-22T00:14:33;22.90;99.90
15328;DHT22;7764;51.430;6.840;2023-06-22T00:17:00;23.00;99.90
15328;DHT22;7764;51.430;6.840;2023-06-22T00:19:26;22.90;99.90
15328;DHT22;7764;51.430;6.840;2023-06-22T00:21:53;22.90;99.90
15328;DHT22;7764;51.430;6.840;2023-06-22T00:24:20;22.80;99.90
15328;DHT22;7764;51.430;6.840;2023-06-22T00:26:48;22.80;99.90
15328;DHT22;7764;51.430;6.840;2023-06-22T00:29:14;22.80;99.90
15328;DHT22;7764;51.430;6.840;2023-06-22T00:31:43;22.80;99.90
15328;DHT22;7764;51.430;6.840;2023-06-22T00:34:09;22.80;99.90
15328;DHT22;7764;51.430;6.840;2023-06-22T00:36:36;22.80;99.90
15328;DHT22;7764;51.430;6.840;2023-06-22T00:39:06;22.80;99.90
15328;DHT22;7764;51.430;6.840;2023-06-22T00:41:34;22.80;99.90
15328;DHT22;7764;51.430;6.840;2023-06-22T00:44:00;22.80;99.90
15328;DHT22;7764;51.430;6.840;2023-06-22T00:46:27;22.80;99.90
15328;DHT22;7764;51.430;6.840;2023-06-22T00:48:56;22.80;99.90
15328;DHT22;7764;51.430;6.840;2023-06-22T00:51:23;22.80;99.90
15328;DHT22;7764;51.430;6.840;2023-06-22T00:53:50;22.80;99.90
15328;DHT22;7764;51.430;6.840;2023-06-22T00:56:18;22.80;99.90
15328;DHT22;7764;51.430;6.840;2023-06-22T00:58:50;22.70;99.90
15328;DHT22;7764;51.430;6.840;2023-06-22T01:01:19;22.70;99.90
15328;DHT22;7764;51.430;6.840;2023-06-22T01:03:49;22.60;99.90
15328;DHT22;7764;51.430;6.840;2023-06-22T01:06:24;22.60;99.90
15328;DHT22;7764;51.430;6.840;2023-06-22T01:09:00;22.50;99.90
15328;DHT22;7764;51.430;6.840;2023-06-22T01:11:35;22.50;99.90
15328;DHT22;7764;51.430;6.840;2023-06-22T01:14:08;22.70;99.90
15328;DHT22;7764;51.430;6.840;2023-06-22T01:16:41;22.60;99.90
15328;DHT22;7764;51.430;6.840;2023-06-22T01:19:20;22.60;99.90
15328;DHT22;7764;51.430;6.840;2023-06-22T01:21:53;22.50;99.90
15328;DHT22;7764;51.430;6.840;2023-06-22T01:24:25;22.50;99.90
15328;DHT22;7764;51.430;6.840;2023-06-22T01:27:00;22.50;99.90
15328;DHT22;7764;51.430;6.840;2023-06-22T01:29:33;22.50;99.90
15328;DHT22;7764;51.430;6.840;2023-06-22T01:32:02;22.50;99.90
15328;DHT22;7764;51.430;6.840;2023-06-22T01:34:31;22.50;99.90
15328;DHT22;7764;51.430;6.840;2023-06-22T01:36:59;22.40;99.90
15328;DHT22;7764;51.430;6.840;2023-06-22T01:39:26;22.40;99.90
15328;DHT22;7764;51.430;6.840;2023-06-22T01:41:54;22.50;99.90
15328;DHT22;7764;51.430;6.840;2023-06-22T01:44:21;22.50;99.90
15328;DHT22;7764;51.430;6.840;2023-06-22T01:46:51;22.50;99.90
15328;DHT22;7764;51.430;6.840;2023-06-22T01:49:19;22.50;99.90
15328;DHT22;7764;51.430;6.840;2023-06-22T01:51:46;22.50;99.90
15328;DHT22;7764;51.430;6.840;2023-06-22T01:54:12;22.50;99.90
15328;DHT22;7764;51.430;6.840;2023-06-22T01:56:39;22.50;99.90
15328;DHT22;7764;51.430;6.840;2023-06-22T01:59:11;22.40;99.90
15328;DHT22;7764;51.430;6.840;2023-06-22T02:01:43;22.40;99.90
15328;DHT22;7764;51.430;6.840;2023-06-22T02:04:18;22.40;99.90
15328;DHT22;7764;51.430;6.840;2023-06-22T02:06:47;22.40;99.90
15328;DHT22;7764;51.430;6.840;2023-06-22T02:09:19;22.30;99.90
15328;DHT22;7764;51.430;6.840;2023-06-22T02:11:47;22.30;99.90
15328;DHT22;7764;51.430;6.840;2023-06-22T02:14:18;22.20;99.90
15328;DHT22;7764;51.430;6.840;2023-06-22T02:16:46;22.30;99.90
15328;DHT22;7764;51.430;6.840;2023-06-22T02:19:14;22.20;99.90
15328;DHT22;7764;51.430;6.840;2023-06-22T02:21:44;22.20;99.90
15328;DHT22;7764;51.430;6.840;2023-06-22T02:24:11;22.20;99.90
15328;DHT22;7764;51.430;6.840;2023-06-22T02:26:38;22.10;99.90
15328;DHT22;7764;51.430;6.840;2023-06-22T02:29:05;22.00;99.90
15328;DHT22;7764;51.430;6.840;2023-06-22T02:31:32;22.00;99.90
15328;DHT22;7764;51.430;6.840;2023-06-22T02:33:59;22.00;99.90
15328;DHT22;7764;51.430;6.840;2023-06-22T02:36:27;22.00;99.90
15328;DHT22;7764;51.430;6.840;2023-06-22T02:38:56;22.10;99.90
15328;DHT22;7764;51.430;6.840;2023-06-22T02:41:26;22.00;99.90
15328;DHT22;7764;51.430;6.840;2023-06-22T02:43:53;22.00;99.90
15328;DHT22;7764;51.430;6.840;2023-06-22T02:46:20;22.00;99.90
15328;DHT22;7764;51.430;6.840;2023-06-22T02:48:46;22.00;99.90
15328;DHT22;7764;51.430;6.840;2023-06-22T02:51:13;22.00;99.90
15328;DHT22;7764;51.430;6.840;2023-06-22T02:53:42;22.00;99.90
15328;DHT22;7764;51.430;6.840;2023-06-22T02:56:10;22.00;99.90
15328;DHT22;7764;51.430;6.840;2023-06-22T02:58:38;22.00;99.90
15328;DHT22;7764;51.430;6.840;2023-06-22T03:01:05;21.90;99.90
15328;DHT22;7764;51.430;6.840;2023-06-22T03:03:32;22.00;99.90
15328;DHT22;7764;51.430;6.840;2023-06-22T03:05:59;21.90;99.90
15328;DHT22;7764;51.430;6.840;2023-06-22T03:08:27;21.90;99.90
15328;DHT22;7764;51.430;6.840;2023-06-22T03:10:55;21.90;99.90
15328;DHT22;7764;51.430;6.840;2023-06-22T03:13:23;21.80;99.90
15328;DHT22;7764;51.430;6.840;2023-06-22T03:15:50;21.80;99.90
15328;DHT22;7764;51.430;6.840;2023-06-22T03:18:18;21.70;99.90
15328;DHT22;7764;51.430;6.840;2023-06-22T03:20:45;21.80;99.90
15328;DHT22;7764;51.430;6.840;2023-06-22T03:23:11;21.80;99.90
15328;DHT22;7764;51.430;6.840;2023-06-22T03:25:38;21.80;99.90
15328;DHT22;7764;51.430;6.840;2023-06-22T03:28:06;21.80;99.90
15328;DHT22;7764;51.430;6.840;2023-06-22T03:30:33;21.80;99.90
15328;DHT22;7764;51.430;6.840;2023-06-22T03:33:00;21.80;99.90
15328;DHT22;7764;51.430;6.840;2023-06-22T03:35:27;21.80;99.90
15328;DHT22;7764;51.430;6.840;2023-06-22T03:37:54;21.70;99.90
15328;DHT22;7764;51.430;6.840;2023-06-22T03:40:21;21.70;99.90
15328;DHT22;7764;51.430;6.840;2023-06-22T03:42:47;21.70;99.90
15328;DHT22;7764;51.430;6.840;2023-06-22T03:45:16;21.70;99.90
15328;DHT22;7764;51.430;6.840;2023-06-22T03:47:43;21.70;99.90
15328;DHT22;7764;51.430;6.840;2023-06-22T03:50:10;21.80;99.90
15328;DHT22;7764;51.430;6.840;2023-06-22T03:52:36;21.80;99.90
15328;DHT22;7764;51.430;6.840;2023-06-22T03:55:04;21.80;99.90
15328;DHT22;7764;51.430;6.840;2023-06-22T03:57:31;21.80;99.90
15328;DHT22;7764;51.430;6.840;2023-06-22T03:59:59;21.70;99.90
15328;DHT22;7764;51.430;6.840;2023-06-22T04:02:28;21.80;99.90
15328;DHT22;7764;51.430;6.840;2023-06-22T04:04:54;21.90;99.90
15328;DHT22;7764;51.430;6.840;2023-06-22T04:07:21;22.00;99.90
15328;DHT22;7764;51.430;6.840;2023-06-22T04:09:48;22.00;99.90
15328;DHT22;7764;51.430;6.840;2023-06-22T04:12:15;22.00;99.90
15328;DHT22;7764;51.430;6.840;2023-06-22T04:14:42;22.10;99.90
15328;DHT22;7764;51.430;6.840;2023-06-22T04:17:08;21.90;99.90
15328;DHT22;7764;51.430;6.840;2023-06-22T04:19:37;21.90;99.90
15328;DHT22;7764;51.430;6.840;2023-06-22T04:22:04;22.00;99.90
15328;DHT22;7764;51.430;6.840;2023-06-22T04:24:32;21.90;99.90
15328;DHT22;7764;51.430;6.840;2023-06-22T04:26:59;22.00;99.90
15328;DHT22;7764;51.430;6.840;2023-06-22T04:29:29;22.00;99.90
15328;DHT22;7764;51.430;6.840;2023-06-22T04:31:56;22.10;99.90
15328;DHT22;7764;51.430;6.840;2023-06-22T04:34:24;22.10;99.90
15328;DHT22;7764;51.430;6.840;2023-06-22T04:36:54;22.10;99.90
15328;DHT22;7764;51.430;6.840;2023-06-22T04:39:21;22.10;99.90
15328;DHT22;7764;51.430;6.840;2023-06-22T04:41:49;22.10;99.90
15328;DHT22;7764;51.430;6.840;2023-06-22T04:44:17;22.20;99.90
15328;DHT22;7764;51.430;6.840;2023-06-22T04:46:49;22.30;99.90
15328;DHT22;7764;51.430;6.840;2023-06-22T04:49:20;22.20;99.90
15328;DHT22;7764;51.430;6.840;2023-06-22T04:51:48;22.10;99.90
15328;DHT22;7764;51.430;6.840;2023-06-22T04:54:18;22.10;99.90
15328;DHT22;7764;51.430;6.840;2023-06-22T04:56:45;22.10;99.90
15328;DHT22;7764;51.430;6.840;2023-06-22T04:59:14;22.10;99.90
15328;DHT22;7764;51.430;6.840;2023-06-22T05:01:44;22.20;99.90
15328;DHT22;7764;51.430;6.840;2023-06-22T05:04:11;22.10;99.90
15328;DHT22;7764;51.430;6.840;2023-06-22T05:06:38;22.00;99.90
15328;DHT22;7764;51.430;6.840;2023-06-22T05:09:05;22.00;99.90
15328;DHT22;7764;51.430;6.840;2023-06-22T05:11:33;22.10;99.90
15328;DHT22;7764;51.430;6.840;2023-06-22T05:14:00;22.10;99.90
15328;DHT22;7764;51.430;6.840;2023-06-22T05:16:27;22.10;99.90
15328;DHT22;7764;51.430;6.840;2023-06-22T05:18:55;22.00;99.90
15328;DHT22;7764;51.430;6.840;2023-06-22T05:21:22;22.00;99.90
15328;DHT22;7764;51.430;6.840;2023-06-22T05:23:50;22.00;99.90
15328;DHT22;7764;51.430;6.840;2023-06-22T05:26:17;22.00;99.90
15328;DHT22;7764;51.430;6.840;2023-06-22T05:28:45;22.00;99.90
15328;DHT22;7764;51.430;6.840;2023-06-22T05:31:13;22.00;99.90
15328;DHT22;7764;51.430;6.840;2023-06-22T05:33:40;22.00;99.90
15328;DHT22;7764;51.430;6.840;2023-06-22T05:36:07;22.00;99.90
15328;DHT22;7764;51.430;6.840;2023-06-22T05:38:34;22.10;99.90
15328;DHT22;7764;51.430;6.840;2023-06-22T05:41:01;22.00;99.90
15328;DHT22;7764;51.430;6.840;2023-06-22T05:43:28;21.90;99.90
15328;DHT22;7764;51.430;6.840;2023-06-22T05:45:56;22.00;99.90
15328;DHT22;7764;51.430;6.840;2023-06-22T05:48:23;21.90;99.90
15328;DHT22;7764;51.430;6.840;2023-06-22T05:50:50;21.90;99.90
15328;DHT22;7764;51.430;6.840;2023-06-22T05:53:17;21.80;99.90
15328;DHT22;7764;51.430;6.840;2023-06-22T05:55:43;21.80;99.90
15328;DHT22;7764;51.430;6.840;2023-06-22T05:58:10;21.80;99.90
15328;DHT22;7764;51.430;6.840;2023-06-22T06:00:39;21.70;99.90
15328;DHT22;7764;51.430;6.840;2023-06-22T06:03:07;21.60;99.90
15328;DHT22;7764;51.430;6.840;2023-06-22T06:05:34;21.60;99.90
15328;DHT22;7764;51.430;6.840;2023-06-22T06:08:02;21.60;99.90
15328;DHT22;7764;51.430;6.840;2023-06-22T06:10:30;21.40;99.90
15328;DHT22;7764;51.430;6.840;2023-06-22T06:12:57;21.30;99.90
15328;DHT22;7764;51.430;6.840;2023-06-22T06:15:24;21.30;99.90
15328;DHT22;7764;51.430;6.840;2023-06-22T06:17:52;21.10;99.90
15328;DHT22;7764;51.430;6.840;2023-06-22T06:20:21;21.10;99.90
15328;DHT22;7764;51.430;6.840;2023-06-22T06:22:49;20.90;99.90
15328;DHT22;7764;51.430;6.840;2023-06-22T06:25:16;20.90;99.90
15328;DHT22;7764;51.430;6.840;2023-06-22T06:27:46;20.90;99.90
15328;DHT22;7764;51.430;6.840;2023-06-22T06:30:14;20.80;99.90
15328;DHT22;7764;51.430;6.840;2023-06-22T06:32:42;20.90;99.90
15328;DHT22;7764;51.430;6.840;2023-06-22T06:35:11;20.90;99.90
15328;DHT22;7764;51.430;6.840;2023-06-22T06:37:42;20.80;99.90
15328;DHT22;7764;51.430;6.840;2023-06-22T06:40:10;20.70;99.90
15328;DHT22;7764;51.430;6.840;2023-06-22T06:42:37;20.80;99.90
15328;DHT22;7764;51.430;6.840;2023-06-22T06:45:06;20.80;99.90
15328;DHT22;7764;51.430;6.840;2023-06-22T06:47:33;20.80;99.90
15328;DHT22;7764;51.430;6.840;2023-06-22T06:50:00;20.90;99.90
15328;DHT22;7764;51.430;6.840;2023-06-22T06:52:27;20.90;99.90
15328;DHT22;7764;51.430;6.840;2023-06-22T06:54:55;21.00;99.90
15328;DHT22;7764;51.430;6.840;2023-06-22T06:57:22;21.10;99.90
15328;DHT22;7764;51.430;6.840;2023-06-22T06:59:49;21.20;99.90
15328;DHT22;7764;51.430;6.840;2023-06-22T07:02:16;21.20;99.90
15328;DHT22;7764;51.430;6.840;2023-06-22T07:04:43;21.20;99.90
15328;DHT22;7764;51.430;6.840;2023-06-22T07:07:10;21.20;99.90
15328;DHT22;7764;51.430;6.840;2023-06-22T07:09:36;21.30;99.90
15328;DHT22;7764;51.430;6.840;2023-06-22T07:12:06;21.20;99.90
15328;DHT22;7764;51.430;6.840;2023-06-22T07:14:33;21.30;99.90
15328;DHT22;7764;51.430;6.840;2023-06-22T07:17:00;21.30;99.90
15328;DHT22;7764;51.430;6.840;2023-06-22T07:19:27;21.40;99.90
15328;DHT22;7764;51.430;6.840;2023-06-22T07:21:54;21.40;99.90
15328;DHT22;7764;51.430;6.840;2023-06-22T07:24:21;21.40;99.90
15328;DHT22;7764;51.430;6.840;2023-06-22T07:26:48;21.50;99.90
15328;DHT22;7764;51.430;6.840;2023-06-22T07:29:17;21.50;99.90
15328;DHT22;7764;51.430;6.840;2023-06-22T07:31:45;21.50;99.90
15328;DHT22;7764;51.430;6.840;2023-06-22T07:34:12;21.60;99.90
15328;DHT22;7764;51.430;6.840;2023-06-22T07:36:39;21.70;99.90
15328;DHT22;7764;51.430;6.840;2023-06-22T07:39:06;21.60;99.90
15328;DHT22;7764;51.430;6.840;2023-06-22T07:41:32;21.60;99.90
15328;DHT22;7764;51.430;6.840;2023-06-22T07:43:59;21.60;99.90
15328;DHT22;7764;51.430;6.840;2023-06-22T07:46:27;21.60;99.90
15328;DHT22;7764;51.430;6.840;2023-06-22T07:48:55;21.80;99.90
15328;DHT22;7764;51.430;6.840;2023-06-22T07:51:23;21.80;99.90
15328;DHT22;7764;51.430;6.840;2023-06-22T07:53:50;21.80;99.90
15328;DHT22;7764;51.430;6.840;2023-06-22T07:56:17;21.70;99.90
15328;DHT22;7764;51.430;6.840;2023-06-22T07:58:45;21.80;99.90
15328;DHT22;7764;51.430;6.840;2023-06-22T08:01:12;21.80;99.90
15328;DHT22;7764;51.430;6.840;2023-06-22T08:03:40;21.80;99.90
15328;DHT22;7764;51.430;6.840;2023-06-22T08:06:07;21.90;99.90
15328;DHT22;7764;51.430;6.840;2023-06-22T08:08:35;21.90;99.90
15328;DHT22;7764;51.430;6.840;2023-06-22T08:11:02;21.90;99.90
15328;DHT22;7764;51.430;6.840;2023-06-22T08:13:29;21.90;99.90
15328;DHT22;7764;51.430;6.840;2023-06-22T08:15:56;21.90;99.90
15328;DHT22;7764;51.430;6.840;2023-06-22T08:18:22;21.80;99.90
15328;DHT22;7764;51.430;6.840;2023-06-22T08:20:51;22.00;99.90
15328;DHT22;7764;51.430;6.840;2023-06-22T08:23:17;22.00;99.90
15328;DHT22;7764;51.430;6.840;2023-06-22T08:25:45;22.10;99.90
15328;DHT22;7764;51.430;6.840;2023-06-22T08:28:13;22.10;99.90
15328;DHT22;7764;51.430;6.840;2023-06-22T08:30:40;22.20;99.90
15328;DHT22;7764;51.430;6.840;2023-06-22T08:33:07;22.10;99.90
15328;DHT22;7764;51.430;6.840;2023-06-22T08:35:34;22.20;99.90
15328;DHT22;7764;51.430;6.840;2023-06-22T08:38:02;22.20;99.90
15328;DHT22;7764;51.430;6.840;2023-06-22T08:40:29;22.20;99.90
15328;DHT22;7764;51.430;6.840;2023-06-22T08:42:56;22.30;99.90
15328;DHT22;7764;51.430;6.840;2023-06-22T08:45:23;22.40;99.90
15328;DHT22;7764;51.430;6.840;2023-06-22T08:47:49;22.40;99.90
15328;DHT22;7764;51.430;6.840;2023-06-22T08:50:16;22.60;99.90
15328;DHT22;7764;51.430;6.840;2023-06-22T08:52:43;22.60;99.90
15328;DHT22;7764;51.430;6.840;2023-06-22T08:55:12;22.70;99.90
15328;DHT22;7764;51.430;6.840;2023-06-22T08:57:40;22.70;99.90
15328;DHT22;7764;51.430;6.840;2023-06-22T09:00:08;22.70;99.90
15328;DHT22;7764;51.430;6.840;2023-06-22T09:02:46;22.60;99.90
15328;DHT22;7764;51.430;6.840;2023-06-22T09:05:13;22.60;99.90
15328;DHT22;7764;51.430;6.840;2023-06-22T09:07:40;22.70;99.90
15328;DHT22;7764;51.430;6.840;2023-06-22T09:10:07;22.80;99.90
15328;DHT22;7764;51.430;6.840;2023-06-22T09:12:36;22.80;99.90
15328;DHT22;7764;51.430;6.840;2023-06-22T09:15:04;22.90;99.90
15328;DHT22;7764;51.430;6.840;2023-06-22T09:17:33;23.00;99.90
15328;DHT22;7764;51.430;6.840;2023-06-22T09:20:00;23.20;99.90
15328;DHT22;7764;51.430;6.840;2023-06-22T09:22:31;23.40;99.90
15328;DHT22;7764;51.430;6.840;2023-06-22T09:24:58;23.60;99.90
15328;DHT22;7764;51.430;6.840;2023-06-22T09:27:26;23.80;99.90
15328;DHT22;7764;51.430;6.840;2023-06-22T09:29:54;24.00;99.90
15328;DHT22;7764;51.430;6.840;2023-06-22T09:32:23;24.10;99.90
15328;DHT22;7764;51.430;6.840;2023-06-22T09:34:51;24.20;99.90
15328;DHT22;7764;51.430;6.840;2023-06-22T09:37:18;24.30;99.90
15328;DHT22;7764;51.430;6.840;2023-06-22T09:39:45;24.30;99.90
15328;DHT22;7764;51.430;6.840;2023-06-22T09:42:11;24.50;99.90
15328;DHT22;7764;51.430;6.840;2023-06-22T09:44:39;24.60;99.90
15328;DHT22;7764;51.430;6.840;2023-06-22T09:47:07;24.60;99.90
15328;DHT22;7764;51.430;6.840;2023-06-22T09:49:34;24.50;99.90
15328;DHT22;7764;51.430;6.840;2023-06-22T09:52:01;24.50;99.90
15328;DHT22;7764;51.430;6.840;2023-06-22T09:54:28;24.60;99.90
15328;DHT22;7764;51.430;6.840;2023-06-22T09:56:54;24.60;99.90
15328;DHT22;7764;51.430;6.840;2023-06-22T09:59:21;24.80;99.90
15328;DHT22;7764;51.430;6.840;2023-06-22T10:01:48;25.10;99.90
15328;DHT22;7764;51.430;6.840;2023-06-22T10:04:16;25.10;99.90
15328;DHT22;7764;51.430;6.840;2023-06-22T10:06:43;25.20;99.90
15328;DHT22;7764;51.430;6.840;2023-06-22T10:09:10;25.40;99.90
15328;DHT22;7764;51.430;6.840;2023-06-22T10:11:37;25.30;99.90
15328;DHT22;7764;51.430;6.840;2023-06-22T10:14:04;25.50;99.90
15328;DHT22;7764;51.430;6.840;2023-06-22T10:16:31;25.60;99.90
15328;DHT22;7764;51.430;6.840;2023-06-22T10:18:58;25.70;99.90
15328;DHT22;7764;51.430;6.840;2023-06-22T10:21:26;25.80;99.90
15328;DHT22;7764;51.430;6.840;2023-06-22T10:23:54;25.80;99.90
15328;DHT22;7764;51.430;6.840;2023-06-22T10:26:21;25.80;99.90
15328;DHT22;7764;51.430;6.840;2023-06-22T10:28:48;26.10;99.90
15328;DHT22;7764;51.430;6.840;2023-06-22T10:31:14;26.30;99.90
15328;DHT22;7764;51.430;6.840;2023-06-22T10:33:42;26.50;99.90
15328;DHT22;7764;51.430;6.840;2023-06-22T10:36:09;26.50;99.90
15328;DHT22;7764;51.430;6.840;2023-06-22T10:38:37;26.40;99.90
15328;DHT22;7764;51.430;6.840;2023-06-22T10:41:04;26.50;99.90
15328;DHT22;7764;51.430;6.840;2023-06-22T10:43:31;26.50;99.90
15328;DHT22;7764;51.430;6.840;2023-06-22T10:45:58;26.30;99.90
15328;DHT22;7764;51.430;6.840;2023-06-22T10:48:25;26.20;99.90
15328;DHT22;7764;51.430;6.840;2023-06-22T10:50:52;26.30;99.90
15328;DHT22;7764;51.430;6.840;2023-06-22T10:53:20;26.20;99.90
15328;DHT22;7764;51.430;6.840;2023-06-22T10:55:48;26.20;99.90
15328;DHT22;7764;51.430;6.840;2023-06-22T10:58:15;26.10;99.90
15328;DHT22;7764;51.430;6.840;2023-06-22T11:00:41;26.00;99.90
15328;DHT22;7764;51.430;6.840;2023-06-22T11:03:08;26.00;99.90
15328;DHT22;7764;51.430;6.840;2023-06-22T11:05:35;26.00;99.90
15328;DHT22;7764;51.430;6.840;2023-06-22T11:08:02;26.00;99.90
15328;DHT22;7764;51.430;6.840;2023-06-22T11:10:29;26.00;99.90
15328;DHT22;7764;51.430;6.840;2023-06-22T11:12:57;25.80;99.90
15328;DHT22;7764;51.430;6.840;2023-06-22T11:15:24;25.70;99.90
15328;DHT22;7764;51.430;6.840;2023-06-22T11:17:51;25.60;99.90
15328;DHT22;7764;51.430;6.840;2023-06-22T11:20:18;25.50;99.90
15328;DHT22;7764;51.430;6.840;2023-06-22T11:22:45;25.40;99.90
15328;DHT22;7764;51.430;6.840;2023-06-22T11:25:12;25.20;99.90
15328;DHT22;7764;51.430;6.840;2023-06-22T11:27:38;25.10;99.90
15328;DHT22;7764;51.430;6.840;2023-06-22T11:30:08;25.20;99.90
15328;DHT22;7764;51.430;6.840;2023-06-22T11:32:35;25.10;99.90
15328;DHT22;7764;51.430;6.840;2023-06-22T11:35:02;25.10;99.90
15328;DHT22;7764;51.430;6.840;2023-06-22T11:37:29;25.00;99.90
15328;DHT22;7764;51.430;6.840;2023-06-22T11:39:55;24.80;99.90
15328;DHT22;7764;51.430;6.840;2023-06-22T11:42:23;24.80;99.90
15328;DHT22;7764;51.430;6.840;2023-06-22T11:44:51;24.70;99.90
15328;DHT22;7764;51.430;6.840;2023-06-22T11:47:19;24.50;99.90
15328;DHT22;7764;51.430;6.840;2023-06-22T11:49:46;24.40;99.90
15328;DHT22;7764;51.430;6.840;2023-06-22T11:52:13;24.20;99.90
15328;DHT22;7764;51.430;6.840;2023-06-22T11:54:40;24.00;99.90
15328;DHT22;7764;51.430;6.840;2023-06-22T11:57:07;23.90;99.90
15328;DHT22;7764;51.430;6.840;2023-06-22T11:59:33;23.80;99.90
15328;DHT22;7764;51.430;6.840;2023-06-22T12:02:00;23.70;99.90
15328;DHT22;7764;51.430;6.840;2023-06-22T12:04:28;23.60;99.90
15328;DHT22;7764;51.430;6.840;2023-06-22T12:06:55;23.60;99.90
15328;DHT22;7764;51.430;6.840;2023-06-22T12:09:24;23.40;99.90
15328;DHT22;7764;51.430;6.840;2023-06-22T12:11:50;23.40;99.90
15328;DHT22;7764;51.430;6.840;2023-06-22T12:14:17;23.40;99.90
15328;DHT22;7764;51.430;6.840;2023-06-22T12:16:44;23.30;99.90
15328;DHT22;7764;51.430;6.840;2023-06-22T12:19:14;23.20;99.90
15328;DHT22;7764;51.430;6.840;2023-06-22T12:21:42;23.20;99.90
15328;DHT22;7764;51.430;6.840;2023-06-22T12:24:11;23.30;99.90
15328;DHT22;7764;51.430;6.840;2023-06-22T12:26:38;23.10;99.90
15328;DHT22;7764;51.430;6.840;2023-06-22T12:29:05;23.20;99.90
15328;DHT22;7764;51.430;6.840;2023-06-22T12:31:31;23.20;99.90
15328;DHT22;7764;51.430;6.840;2023-06-22T12:33:58;23.30;99.90
15328;DHT22;7764;51.430;6.840;2023-06-22T12:36:25;23.40;99.90
15328;DHT22;7764;51.430;6.840;2023-06-22T12:38:53;23.40;99.90
15328;DHT22;7764;51.430;6.840;2023-06-22T12:41:20;23.50;99.90
15328;DHT22;7764;51.430;6.840;2023-06-22T12:43:47;23.60;99.90
15328;DHT22;7764;51.430;6.840;2023-06-22T12:46:14;23.60;99.90
15328;DHT22;7764;51.430;6.840;2023-06-22T12:48:41;23.60;99.90
15328;DHT22;7764;51.430;6.840;2023-06-22T12:51:08;23.50;99.90
15328;DHT22;7764;51.430;6.840;2023-06-22T12:53:35;23.40;99.90
15328;DHT22;7764;51.430;6.840;2023-06-22T12:56:04;23.40;99.90
15328;DHT22;7764;51.430;6.840;2023-06-22T12:58:31;23.50;99.90
15328;DHT22;7764;51.430;6.840;2023-06-22T13:00:57;23.50;99.90
15328;DHT22;7764;51.430;6.840;2023-06-22T13:03:24;23.30;99.90
15328;DHT22;7764;51.430;6.840;2023-06-22T13:05:53;23.40;99.90
15328;DHT22;7764;51.430;6.840;2023-06-22T13:08:20;23.40;99.90
15328;DHT22;7764;51.430;6.840;2023-06-22T13:10:47;23.30;99.90
15328;DHT22;7764;51.430;6.840;2023-06-22T13:13:15;23.30;99.90
15328;DHT22;7764;51.430;6.840;2023-06-22T13:15:42;23.30;99.90
15328;DHT22;7764;51.430;6.840;2023-06-22T13:18:09;23.20;99.90
15328;DHT22;7764;51.430;6.840;2023-06-22T13:20:35;23.30;99.90
15328;DHT22;7764;51.430;6.840;2023-06-22T13:23:02;23.30;99.90
15328;DHT22;7764;51.430;6.840;2023-06-22T13:25:29;23.30;99.90
15328;DHT22;7764;51.430;6.840;2023-06-22T13:27:56;23.30;99.90
15328;DHT22;7764;51.430;6.840;2023-06-22T13:30:25;23.30;99.90
15328;DHT22;7764;51.430;6.840;2023-06-22T13:32:52;23.40;99.90
15328;DHT22;7764;51.430;6.840;2023-06-22T13:35:19;23.40;99.90
15328;DHT22;7764;51.430;6.840;2023-06-22T13:37:46;23.40;99.90
15328;DHT22;7764;51.430;6.840;2023-06-22T13:40:12;23.50;99.90
15328;DHT22;7764;51.430;6.840;2023-06-22T13:42:40;23.50;99.90
15328;DHT22;7764;51.430;6.840;2023-06-22T13:45:08;23.50;99.90
15328;DHT22;7764;51.430;6.840;2023-06-22T13:47:36;23.50;99.90
15328;DHT22;7764;51.430;6.840;2023-06-22T13:50:04;23.70;99.90
15328;DHT22;7764;51.430;6.840;2023-06-22T13:52:31;23.70;99.90
15328;DHT22;7764;51.430;6.840;2023-06-22T13:54:57;23.70;99.90
15328;DHT22;7764;51.430;6.840;2023-06-22T13:57:25;23.80;99.90
15328;DHT22;7764;51.430;6.840;2023-06-22T13:59:53;23.80;99.90
15328;DHT22;7764;51.430;6.840;2023-06-22T14:02:20;23.70;99.90
15328;DHT22;7764;51.430;6.840;2023-06-22T14:04:48;23.70;99.90
15328;DHT22;7764;51.430;6.840;2023-06-22T14:07:15;23.80;99.90
15328;DHT22;7764;51.430;6.840;2023-06-22T14:09:42;23.80;99.90
15328;DHT22;7764;51.430;6.840;2023-06-22T14:12:10;23.80;99.90
15328;DHT22;7764;51.430;6.840;2023-06-22T14:14:37;23.80;99.90
15328;DHT22;7764;51.430;6.840;2023-06-22T14:17:04;23.80;99.90
15328;DHT22;7764;51.430;6.840;2023-06-22T14:19:31;23.60;99.90
15328;DHT22;7764;51.430;6.840;2023-06-22T14:22:00;23.60;99.90
15328;DHT22;7764;51.430;6.840;2023-06-22T14:24:26;23.60;99.90
15328;DHT22;7764;51.430;6.840;2023-06-22T14:26:54;23.50;99.90
15328;DHT22;7764;51.430;6.840;2023-06-22T14:29:21;23.50;99.90
15328;DHT22;7764;51.430;6.840;2023-06-22T14:31:48;23.50;99.90
15328;DHT22;7764;51.430;6.840;2023-06-22T14:34:15;23.40;99.90
15328;DHT22;7764;51.430;6.840;2023-06-22T14:36:42;23.40;99.90
15328;DHT22;7764;51.430;6.840;2023-06-22T14:39:10;23.50;99.90
15328;DHT22;7764;51.430;6.840;2023-06-22T14:41:37;23.50;99.90
15328;DHT22;7764;51.430;6.840;2023-06-22T14:44:04;23.50;99.90
15328;DHT22;7764;51.430;6.840;2023-06-22T14:46:31;23.40;99.90
15328;DHT22;7764;51.430;6.840;2023-06-22T14:48:58;23.40;99.90
15328;DHT22;7764;51.430;6.840;2023-06-22T14:51:25;23.40;99.90
15328;DHT22;7764;51.430;6.840;2023-06-22T14:53:52;23.40;99.90
15328;DHT22;7764;51.430;6.840;2023-06-22T14:56:20;23.30;99.90
15328;DHT22;7764;51.430;6.840;2023-06-22T14:58:47;23.40;99.90
15328;DHT22;7764;51.430;6.840;2023-06-22T15:01:16;23.40;99.90
15328;DHT22;7764;51.430;6.840;2023-06-22T15:03:43;23.30;99.90
15328;DHT22;7764;51.430;6.840;2023-06-22T15:06:09;23.30;99.90
15328;DHT22;7764;51.430;6.840;2023-06-22T15:08:37;23.40;99.90
15328;DHT22;7764;51.430;6.840;2023-06-22T15:11:04;23.50;99.90
15328;DHT22;7764;51.430;6.840;2023-06-22T15:13:33;23.40;99.90
15328;DHT22;7764;51.430;6.840;2023-06-22T15:16:00;23.50;99.90
15328;DHT22;7764;51.430;6.840;2023-06-22T15:18:28;23.60;99.90
15328;DHT22;7764;51.430;6.840;2023-06-22T15:20:55;23.50;99.90
15328;DHT22;7764;51.430;6.840;2023-06-22T15:23:24;23.50;99.90
15328;DHT22;7764;51.430;6.840;2023-06-22T15:25:51;23.50;99.90
15328;DHT22;7764;51.430;6.840;2023-06-22T15:28:18;23.50;99.90
15328;DHT22;7764;51.430;6.840;2023-06-22T15:30:48;23.50;99.90
15328;DHT22;7764;51.430;6.840;2023-06-22T15:33:15;23.50;99.90
15328;DHT22;7764;51.430;6.840;2023-06-22T15:35:42;23.50;99.90
15328;DHT22;7764;51.430;6.840;2023-06-22T15:38:09;23.50;99.90
15328;DHT22;7764;51.430;6.840;2023-06-22T15:40:36;23.60;99.90
15328;DHT22;7764;51.430;6.840;2023-06-22T15:43:02;23.40;99.90
15328;DHT22;7764;51.430;6.840;2023-06-22T15:45:29;23.50;99.90
15328;DHT22;7764;51.430;6.840;2023-06-22T15:47:57;23.50;99.90